createdAt,value
2023-04-16T14:50:18.561Z,12.38
2023-04-16T14:52:55.856Z,13.70
2023-04-16T14:55:22.234Z,12.75
2023-04-16T14:57:48.704Z,12.82
2023-04-16T15:00:18.745Z,13.43
2023-04-16T15:02:46.381Z,14.07
2023-04-16T15:05:13.005Z,12.23
2023-04-16T15:07:39.569Z,12.85
2023-04-16T15:10:08.232Z,13.93
2023-04-16T15:12:34.651Z,13.90
2023-04-16T15:15:01.029Z,13.10
2023-04-16T15:17:27.526Z,12.25
2023-04-16T15:19:54.017Z,13.05
2023-04-16T15:22:20.490Z,12.77
2023-04-16T15:24:46.958Z,12.00
2023-04-16T15:27:14.649Z,11.60
2023-04-16T15:29:41.116Z,11.15
2023-04-16T15:32:07.510Z,11.65
2023-04-16T15:34:34.125Z,12.15
2023-04-16T15:37:00.617Z,11.90
2023-04-16T15:39:27.105Z,12.15
2023-04-16T15:42:01.445Z,13.73
2023-04-16T15:44:30.985Z,11.55
2023-04-16T15:46:57.808Z,13.45
2023-04-16T15:49:24.738Z,11.48
2023-04-16T15:51:51.963Z,12.60
2023-04-16T15:54:18.541Z,11.77
2023-04-16T15:56:46.592Z,11.07
2023-04-16T15:59:13.552Z,11.48
2023-04-16T16:01:40.051Z,11.75
2023-04-16T16:04:07.459Z,13.27
2023-04-16T16:06:34.281Z,11.05
2023-04-16T16:09:00.937Z,11.75
2023-04-16T16:11:27.637Z,10.68
2023-04-16T16:13:54.122Z,11.18
2023-04-16T16:16:21.744Z,12.00
2023-04-16T16:18:48.437Z,11.70
2023-04-16T16:21:14.862Z,11.38
2023-04-16T16:23:41.340Z,12.05
2023-04-16T16:26:07.829Z,12.07
2023-04-16T16:28:37.477Z,12.73
2023-04-16T16:31:07.317Z,12.15
2023-04-16T16:33:33.855Z,14.07
2023-04-16T16:36:00.589Z,12.82
2023-04-16T16:38:27.382Z,12.75
2023-04-16T16:40:53.853Z,11.93
2023-04-16T16:43:20.665Z,12.05
2023-04-16T16:45:47.185Z,14.45
2023-04-16T16:48:13.659Z,12.60
2023-04-16T16:50:40.159Z,13.88
2023-04-16T16:53:06.736Z,18.92
2023-04-16T16:55:33.249Z,15.90
2023-04-16T16:57:59.738Z,14.80
2023-04-16T17:00:26.256Z,14.85
2023-04-16T17:02:52.866Z,14.93
2023-04-16T17:05:19.913Z,15.75
2023-04-16T17:07:46.685Z,16.83
2023-04-16T17:10:19.745Z,18.60
2023-04-16T17:12:48.136Z,18.60
2023-04-16T17:15:14.785Z,15.57
2023-04-16T17:17:41.484Z,16.90
2023-04-16T17:20:09.564Z,16.35
2023-04-16T17:22:37.170Z,15.18
2023-04-16T17:25:03.937Z,17.65
2023-04-16T17:27:33.698Z,17.15
2023-04-16T17:30:05.298Z,16.90
2023-04-16T17:32:32.545Z,16.85
2023-04-16T17:35:00.189Z,17.15
2023-04-16T17:37:27.248Z,17.02
2023-04-16T17:39:53.731Z,17.15
2023-04-16T17:42:20.495Z,17.15
2023-04-16T17:44:47.236Z,17.38
2023-04-16T17:47:13.695Z,16.48
2023-04-16T17:49:40.276Z,18.75
2023-04-16T17:52:06.895Z,17.73
2023-04-16T17:54:49.806Z,19.42
2023-04-16T17:57:16.432Z,19.40
2023-04-16T17:59:42.976Z,19.25
2023-04-16T18:02:09.527Z,19.13
2023-04-16T18:04:36.356Z,18.48
2023-04-16T18:07:02.896Z,16.50
2023-04-16T18:09:29.991Z,16.80
2023-04-16T18:11:57.004Z,17.95
2023-04-16T18:14:23.582Z,15.65
2023-04-16T18:16:50.018Z,18.15
2023-04-16T18:19:16.567Z,18.15
2023-04-16T18:21:43.449Z,19.88
2023-04-16T18:24:10.432Z,20.50
2023-04-16T18:26:37.554Z,19.85
2023-04-16T18:29:05.521Z,19.42
2023-04-16T18:31:32.156Z,20.85
2023-04-16T18:33:58.764Z,20.50
2023-04-16T18:36:27.078Z,19.65
2023-04-16T18:39:01.615Z,20.85
2023-04-16T18:41:29.645Z,19.25
2023-04-16T18:43:56.253Z,21.67
2023-04-16T18:46:22.772Z,18.40
2023-04-16T18:48:49.249Z,18.58
2023-04-16T18:51:16.700Z,20.48
2023-04-16T18:53:44.343Z,20.40
2023-04-16T18:56:11.558Z,19.90
2023-04-16T18:58:38.087Z,19.48
2023-04-16T19:01:05.286Z,19.85
2023-04-16T19:03:32.079Z,21.33
2023-04-16T19:05:58.778Z,21.48
2023-04-16T19:08:25.312Z,21.73
2023-04-16T19:10:51.780Z,19.02
2023-04-16T19:13:18.275Z,21.50
2023-04-16T19:15:44.691Z,21.35
2023-04-16T19:18:11.140Z,21.27
2023-04-16T19:20:37.565Z,21.42
2023-04-16T19:23:05.567Z,21.95
2023-04-16T19:25:32.429Z,21.60
2023-04-16T19:27:58.858Z,21.58
2023-04-16T19:30:25.489Z,19.52
2023-04-16T19:32:54.572Z,20.30
2023-04-16T19:35:21.668Z,21.23
2023-04-16T19:37:48.044Z,19.02
2023-04-16T19:40:14.583Z,22.05
2023-04-16T19:42:41.228Z,23.20
2023-04-16T19:45:07.910Z,21.85
2023-04-16T19:47:34.325Z,21.45
2023-04-16T19:50:00.908Z,21.75
2023-04-16T19:52:27.353Z,20.95
2023-04-16T19:54:53.755Z,24.02
2023-04-16T19:57:21.201Z,21.00
2023-04-16T19:59:47.670Z,22.25
2023-04-16T20:02:14.159Z,21.38
2023-04-16T20:04:40.657Z,24.10
2023-04-16T20:07:07.182Z,22.73
2023-04-16T20:09:33.650Z,20.50
2023-04-16T20:12:00.708Z,21.15
2023-04-16T20:14:27.270Z,20.50
2023-04-16T20:16:53.754Z,22.33
2023-04-16T20:19:20.133Z,20.73
2023-04-16T20:21:46.648Z,22.95
2023-04-16T20:24:15.247Z,22.20
2023-04-16T20:26:41.833Z,21.17
2023-04-16T20:29:10.120Z,23.25
2023-04-16T20:31:36.727Z,21.98
2023-04-16T20:34:03.731Z,20.80
2023-04-16T20:36:30.423Z,22.88
2023-04-16T20:38:56.882Z,22.15
2023-04-16T20:41:25.001Z,21.23
2023-04-16T20:43:52.872Z,20.48
2023-04-16T20:46:24.303Z,21.65
2023-04-16T20:48:51.399Z,20.73
2023-04-16T20:51:17.821Z,21.15
2023-04-16T20:53:44.223Z,22.65
2023-04-16T20:56:14.657Z,22.80
2023-04-16T20:58:41.780Z,21.90
2023-04-16T21:01:08.323Z,20.85
2023-04-16T21:03:35.217Z,21.88
2023-04-16T21:06:01.983Z,22.85
2023-04-16T21:08:28.484Z,22.67
2023-04-16T21:10:54.869Z,22.40
2023-04-16T21:13:21.699Z,21.58
2023-04-16T21:15:48.293Z,22.67
2023-04-16T21:18:14.917Z,19.90
2023-04-16T21:20:41.390Z,21.58
2023-04-16T21:23:07.846Z,22.42
2023-04-16T21:25:34.291Z,21.90
2023-04-16T21:28:03.658Z,23.23
2023-04-16T21:30:30.073Z,22.27
2023-04-16T21:32:56.589Z,21.95
2023-04-16T21:35:23.121Z,24.70
2023-04-16T21:37:49.610Z,22.85
2023-04-16T21:40:16.205Z,24.27
2023-04-16T21:42:42.664Z,19.58
2023-04-16T21:45:10.161Z,25.40
2023-04-16T21:47:37.079Z,24.00
2023-04-16T21:50:03.962Z,22.45
2023-04-16T21:52:30.535Z,21.45
2023-04-16T21:54:56.910Z,20.58
2023-04-16T21:57:23.390Z,21.42
2023-04-16T21:59:49.901Z,19.63
2023-04-16T22:02:16.427Z,20.63
2023-04-16T22:04:43.564Z,20.45
2023-04-16T22:07:10.010Z,20.17
2023-04-16T22:09:36.600Z,20.75
2023-04-16T22:12:03.290Z,18.98
2023-04-16T22:14:30.200Z,20.13
2023-04-16T22:16:56.737Z,19.80
2023-04-16T22:19:23.322Z,19.58
2023-04-16T22:21:49.778Z,21.48
2023-04-16T22:24:16.275Z,21.05
2023-04-16T22:26:42.719Z,21.73
2023-04-16T22:29:09.363Z,21.08
2023-04-16T22:31:36.157Z,19.88
2023-04-16T22:34:03.564Z,21.52
2023-04-16T22:36:31.239Z,24.00
2023-04-16T22:38:57.650Z,21.98
2023-04-16T22:41:24.098Z,21.85
2023-04-16T22:43:52.470Z,21.85
2023-04-16T22:46:24.601Z,23.77
2023-04-16T22:48:51.773Z,22.67
2023-04-16T22:51:18.286Z,22.00
2023-04-16T22:53:44.692Z,24.65
2023-04-16T22:56:11.701Z,23.55
2023-04-16T22:58:38.420Z,23.73
2023-04-16T23:01:04.911Z,23.60
2023-04-16T23:03:31.893Z,22.77
2023-04-16T23:05:58.322Z,24.13
2023-04-16T23:08:24.721Z,23.70
2023-04-16T23:10:51.087Z,24.05
2023-04-16T23:13:17.513Z,22.75
2023-04-16T23:15:43.959Z,21.83
2023-04-16T23:18:10.597Z,24.38
2023-04-16T23:20:37.113Z,24.05
2023-04-16T23:23:03.506Z,23.70
2023-04-16T23:25:29.930Z,23.70
2023-04-16T23:27:56.741Z,24.52
2023-04-16T23:30:23.184Z,25.00
2023-04-16T23:32:49.690Z,25.30
2023-04-16T23:35:22.607Z,25.17
2023-04-16T23:37:49.328Z,25.15
2023-04-16T23:40:16.380Z,24.63
2023-04-16T23:42:42.781Z,25.95
2023-04-16T23:45:09.594Z,23.42
2023-04-16T23:47:36.030Z,25.02
2023-04-16T23:50:02.666Z,23.20
2023-04-16T23:52:29.095Z,21.80
2023-04-16T23:54:55.629Z,20.58
2023-04-16T23:57:22.027Z,21.10
2023-04-16T23:59:48.464Z,19.75
